sensor_id;sensor_type;location;lat;lon;timestamp;P1;durP1;ratioP1;P2;durP2;ratioP2
40537;SDS011;27925;41.874;12.526;2022-09-16T00:00:00;13.40;;;4.07;;
40537;SDS011;27925;41.874;12.526;2022-09-16T00:02:26;15.68;;;4.18;;
40537;SDS011;27925;41.874;12.526;2022-09-16T00:04:51;18.33;;;5.20;;
40537;SDS011;27925;41.874;12.526;2022-09-16T00:07:18;12.15;;;4.18;;
40537;SDS011;27925;41.874;12.526;2022-09-16T00:09:44;12.00;;;4.22;;
40537;SDS011;27925;41.874;12.526;2022-09-16T00:12:10;17.30;;;4.55;;
40537;SDS011;27925;41.874;12.526;2022-09-16T00:14:35;12.32;;;4.20;;
40537;SDS011;27925;41.874;12.526;2022-09-16T00:17:01;16.30;;;4.40;;
40537;SDS011;27925;41.874;12.526;2022-09-16T00:19:27;15.52;;;4.60;;
40537;SDS011;27925;41.874;12.526;2022-09-16T00:21:53;11.57;;;3.83;;
40537;SDS011;27925;41.874;12.526;2022-09-16T00:24:18;16.13;;;4.78;;
40537;SDS011;27925;41.874;12.526;2022-09-16T00:26:44;13.57;;;5.03;;
40537;SDS011;27925;41.874;12.526;2022-09-16T00:29:10;19.00;;;4.53;;
40537;SDS011;27925;41.874;12.526;2022-09-16T00:31:38;19.88;;;5.82;;
40537;SDS011;27925;41.874;12.526;2022-09-16T00:34:04;16.60;;;4.18;;
40537;SDS011;27925;41.874;12.526;2022-09-16T00:36:30;14.63;;;4.63;;
40537;SDS011;27925;41.874;12.526;2022-09-16T00:38:55;14.20;;;4.47;;
40537;SDS011;27925;41.874;12.526;2022-09-16T00:41:30;25.35;;;5.70;;
40537;SDS011;27925;41.874;12.526;2022-09-16T00:46:25;17.73;;;5.22;;
40537;SDS011;27925;41.874;12.526;2022-09-16T00:49:09;16.80;;;4.63;;
40537;SDS011;27925;41.874;12.526;2022-09-16T00:51:41;13.95;;;4.28;;
40537;SDS011;27925;41.874;12.526;2022-09-16T00:54:09;20.83;;;5.22;;
40537;SDS011;27925;41.874;12.526;2022-09-16T00:56:36;13.57;;;4.45;;
40537;SDS011;27925;41.874;12.526;2022-09-16T01:01:39;19.33;;;5.20;;
40537;SDS011;27925;41.874;12.526;2022-09-16T01:04:10;16.05;;;4.53;;
40537;SDS011;27925;41.874;12.526;2022-09-16T01:06:48;18.67;;;5.13;;
40537;SDS011;27925;41.874;12.526;2022-09-16T01:09:15;13.32;;;4.60;;
40537;SDS011;27925;41.874;12.526;2022-09-16T01:11:43;16.55;;;5.93;;
40537;SDS011;27925;41.874;12.526;2022-09-16T01:14:09;15.40;;;5.03;;
40537;SDS011;27925;41.874;12.526;2022-09-16T01:17:13;16.92;;;4.75;;
40537;SDS011;27925;41.874;12.526;2022-09-16T01:25:48;17.27;;;4.65;;
40537;SDS011;27925;41.874;12.526;2022-09-16T01:41:25;17.95;;;6.03;;
40537;SDS011;27925;41.874;12.526;2022-09-16T01:44:21;23.55;;;6.43;;
40537;SDS011;27925;41.874;12.526;2022-09-16T01:46:58;25.48;;;6.38;;
40537;SDS011;27925;41.874;12.526;2022-09-16T01:52:32;23.02;;;6.82;;
40537;SDS011;27925;41.874;12.526;2022-09-16T01:55:08;20.10;;;7.25;;
40537;SDS011;27925;41.874;12.526;2022-09-16T01:57:46;22.23;;;6.43;;
40537;SDS011;27925;41.874;12.526;2022-09-16T02:00:23;19.40;;;6.72;;
40537;SDS011;27925;41.874;12.526;2022-09-16T02:03:05;24.75;;;6.22;;
40537;SDS011;27925;41.874;12.526;2022-09-16T02:06:16;27.65;;;6.32;;
40537;SDS011;27925;41.874;12.526;2022-09-16T02:08:27;25.80;;;6.57;;
40537;SDS011;27925;41.874;12.526;2022-09-16T02:10:58;17.52;;;6.03;;
40537;SDS011;27925;41.874;12.526;2022-09-16T02:16:07;22.95;;;6.25;;
40537;SDS011;27925;41.874;12.526;2022-09-16T02:18:39;29.88;;;7.03;;
40537;SDS011;27925;41.874;12.526;2022-09-16T02:21:07;23.55;;;6.95;;
40537;SDS011;27925;41.874;12.526;2022-09-16T02:23:39;31.42;;;7.20;;
40537;SDS011;27925;41.874;12.526;2022-09-16T02:26:10;24.63;;;7.05;;
40537;SDS011;27925;41.874;12.526;2022-09-16T02:28:40;29.40;;;7.65;;
40537;SDS011;27925;41.874;12.526;2022-09-16T02:31:09;28.30;;;7.32;;
40537;SDS011;27925;41.874;12.526;2022-09-16T02:33:56;24.35;;;7.53;;
40537;SDS011;27925;41.874;12.526;2022-09-16T02:36:25;29.15;;;7.55;;
40537;SDS011;27925;41.874;12.526;2022-09-16T02:39:00;29.10;;;7.50;;
40537;SDS011;27925;41.874;12.526;2022-09-16T02:41:31;24.98;;;8.07;;
40537;SDS011;27925;41.874;12.526;2022-09-16T02:43:57;26.38;;;7.03;;
40537;SDS011;27925;41.874;12.526;2022-09-16T02:49:01;24.67;;;7.93;;
40537;SDS011;27925;41.874;12.526;2022-09-16T02:51:44;23.15;;;7.25;;
40537;SDS011;27925;41.874;12.526;2022-09-16T02:54:22;24.77;;;7.57;;
40537;SDS011;27925;41.874;12.526;2022-09-16T02:56:56;23.40;;;7.10;;
40537;SDS011;27925;41.874;12.526;2022-09-16T02:59:22;22.92;;;6.53;;
40537;SDS011;27925;41.874;12.526;2022-09-16T03:01:49;34.28;;;8.30;;
40537;SDS011;27925;41.874;12.526;2022-09-16T03:04:16;26.33;;;7.10;;
40537;SDS011;27925;41.874;12.526;2022-09-16T03:06:43;34.95;;;8.27;;
40537;SDS011;27925;41.874;12.526;2022-09-16T03:09:13;22.60;;;7.45;;
40537;SDS011;27925;41.874;12.526;2022-09-16T03:14:31;24.58;;;7.57;;
40537;SDS011;27925;41.874;12.526;2022-09-16T03:28:11;24.85;;;8.10;;
40537;SDS011;27925;41.874;12.526;2022-09-16T03:33:28;24.95;;;7.22;;
40537;SDS011;27925;41.874;12.526;2022-09-16T03:36:02;25.63;;;7.28;;
40537;SDS011;27925;41.874;12.526;2022-09-16T03:38:32;31.10;;;7.95;;
40537;SDS011;27925;41.874;12.526;2022-09-16T03:41:00;30.35;;;7.38;;
40537;SDS011;27925;41.874;12.526;2022-09-16T03:43:27;27.10;;;7.10;;
40537;SDS011;27925;41.874;12.526;2022-09-16T03:45:53;29.83;;;7.07;;
40537;SDS011;27925;41.874;12.526;2022-09-16T03:48:18;25.65;;;7.10;;
40537;SDS011;27925;41.874;12.526;2022-09-16T03:50:44;30.58;;;8.02;;
40537;SDS011;27925;41.874;12.526;2022-09-16T03:53:10;27.77;;;8.02;;
40537;SDS011;27925;41.874;12.526;2022-09-16T03:55:35;28.50;;;7.28;;
40537;SDS011;27925;41.874;12.526;2022-09-16T03:58:01;32.40;;;10.23;;
40537;SDS011;27925;41.874;12.526;2022-09-16T04:00:27;24.85;;;7.20;;
40537;SDS011;27925;41.874;12.526;2022-09-16T04:02:53;28.45;;;8.13;;
40537;SDS011;27925;41.874;12.526;2022-09-16T04:05:19;22.25;;;7.32;;
40537;SDS011;27925;41.874;12.526;2022-09-16T04:07:47;25.45;;;7.38;;
40537;SDS011;27925;41.874;12.526;2022-09-16T04:10:14;31.95;;;8.45;;
40537;SDS011;27925;41.874;12.526;2022-09-16T04:12:40;27.55;;;8.13;;
40537;SDS011;27925;41.874;12.526;2022-09-16T04:15:05;34.30;;;9.68;;
40537;SDS011;27925;41.874;12.526;2022-09-16T04:17:32;25.23;;;7.30;;
40537;SDS011;27925;41.874;12.526;2022-09-16T04:19:58;30.10;;;8.48;;
40537;SDS011;27925;41.874;12.526;2022-09-16T04:22:28;34.50;;;13.95;;
40537;SDS011;27925;41.874;12.526;2022-09-16T04:24:55;31.60;;;10.23;;
40537;SDS011;27925;41.874;12.526;2022-09-16T04:27:21;32.75;;;7.80;;
40537;SDS011;27925;41.874;12.526;2022-09-16T04:29:46;31.10;;;8.13;;
40537;SDS011;27925;41.874;12.526;2022-09-16T04:32:12;36.30;;;9.10;;
40537;SDS011;27925;41.874;12.526;2022-09-16T04:34:38;33.58;;;8.68;;
40537;SDS011;27925;41.874;12.526;2022-09-16T04:37:04;28.55;;;7.72;;
40537;SDS011;27925;41.874;12.526;2022-09-16T04:39:29;29.00;;;9.23;;
40537;SDS011;27925;41.874;12.526;2022-09-16T04:41:55;25.38;;;7.60;;
40537;SDS011;27925;41.874;12.526;2022-09-16T04:44:21;31.73;;;8.35;;
40537;SDS011;27925;41.874;12.526;2022-09-16T04:46:47;30.67;;;8.18;;
40537;SDS011;27925;41.874;12.526;2022-09-16T04:49:13;31.02;;;8.07;;
40537;SDS011;27925;41.874;12.526;2022-09-16T04:51:39;32.63;;;7.82;;
40537;SDS011;27925;41.874;12.526;2022-09-16T04:54:04;32.47;;;8.02;;
40537;SDS011;27925;41.874;12.526;2022-09-16T04:56:31;30.75;;;7.57;;
40537;SDS011;27925;41.874;12.526;2022-09-16T04:58:58;27.75;;;7.22;;
40537;SDS011;27925;41.874;12.526;2022-09-16T05:01:26;28.67;;;7.78;;
40537;SDS011;27925;41.874;12.526;2022-09-16T05:03:53;26.35;;;6.55;;
40537;SDS011;27925;41.874;12.526;2022-09-16T05:06:22;26.38;;;7.30;;
40537;SDS011;27925;41.874;12.526;2022-09-16T05:08:50;27.80;;;8.38;;
40537;SDS011;27925;41.874;12.526;2022-09-16T05:11:17;25.27;;;7.20;;
40537;SDS011;27925;41.874;12.526;2022-09-16T05:13:45;24.80;;;6.85;;
40537;SDS011;27925;41.874;12.526;2022-09-16T05:16:12;29.10;;;7.00;;
40537;SDS011;27925;41.874;12.526;2022-09-16T05:18:40;25.40;;;6.40;;
40537;SDS011;27925;41.874;12.526;2022-09-16T05:21:08;28.88;;;7.95;;
40537;SDS011;27925;41.874;12.526;2022-09-16T05:23:35;21.65;;;7.00;;
40537;SDS011;27925;41.874;12.526;2022-09-16T05:26:12;24.58;;;6.82;;
40537;SDS011;27925;41.874;12.526;2022-09-16T05:28:46;21.88;;;6.28;;
40537;SDS011;27925;41.874;12.526;2022-09-16T05:31:18;28.67;;;7.25;;
40537;SDS011;27925;41.874;12.526;2022-09-16T05:33:52;27.83;;;6.32;;
40537;SDS011;27925;41.874;12.526;2022-09-16T05:36:23;23.77;;;6.82;;
40537;SDS011;27925;41.874;12.526;2022-09-16T05:38:49;26.55;;;7.32;;
40537;SDS011;27925;41.874;12.526;2022-09-16T05:41:15;22.50;;;6.15;;
40537;SDS011;27925;41.874;12.526;2022-09-16T05:43:41;28.23;;;6.63;;
40537;SDS011;27925;41.874;12.526;2022-09-16T05:46:07;25.55;;;5.68;;
40537;SDS011;27925;41.874;12.526;2022-09-16T05:48:39;34.30;;;5.78;;
40537;SDS011;27925;41.874;12.526;2022-09-16T05:51:05;23.33;;;5.93;;
40537;SDS011;27925;41.874;12.526;2022-09-16T05:53:32;21.92;;;5.38;;
40537;SDS011;27925;41.874;12.526;2022-09-16T05:58:30;20.67;;;6.15;;
40537;SDS011;27925;41.874;12.526;2022-09-16T06:00:58;20.83;;;5.90;;
40537;SDS011;27925;41.874;12.526;2022-09-16T06:03:25;25.73;;;5.65;;
40537;SDS011;27925;41.874;12.526;2022-09-16T06:05:51;16.88;;;4.90;;
40537;SDS011;27925;41.874;12.526;2022-09-16T06:08:23;19.17;;;5.38;;
40537;SDS011;27925;41.874;12.526;2022-09-16T06:10:49;16.92;;;5.13;;
40537;SDS011;27925;41.874;12.526;2022-09-16T06:13:15;19.10;;;5.53;;
40537;SDS011;27925;41.874;12.526;2022-09-16T06:15:49;20.20;;;5.28;;
40537;SDS011;27925;41.874;12.526;2022-09-16T06:18:16;27.73;;;6.35;;
40537;SDS011;27925;41.874;12.526;2022-09-16T06:20:42;20.05;;;5.05;;
40537;SDS011;27925;41.874;12.526;2022-09-16T06:23:09;22.33;;;5.70;;
40537;SDS011;27925;41.874;12.526;2022-09-16T06:25:35;21.98;;;5.38;;
40537;SDS011;27925;41.874;12.526;2022-09-16T06:28:01;15.93;;;5.18;;
40537;SDS011;27925;41.874;12.526;2022-09-16T06:30:28;17.95;;;5.45;;
40537;SDS011;27925;41.874;12.526;2022-09-16T06:32:53;24.83;;;7.55;;
40537;SDS011;27925;41.874;12.526;2022-09-16T06:35:19;24.00;;;7.85;;
40537;SDS011;27925;41.874;12.526;2022-09-16T06:37:45;22.27;;;7.47;;
40537;SDS011;27925;41.874;12.526;2022-09-16T06:40:11;19.85;;;6.82;;
40537;SDS011;27925;41.874;12.526;2022-09-16T06:42:36;22.65;;;6.85;;
40537;SDS011;27925;41.874;12.526;2022-09-16T06:45:02;25.10;;;6.60;;
40537;SDS011;27925;41.874;12.526;2022-09-16T06:47:30;24.58;;;5.80;;
40537;SDS011;27925;41.874;12.526;2022-09-16T06:49:59;19.15;;;4.85;;
40537;SDS011;27925;41.874;12.526;2022-09-16T06:52:26;19.30;;;4.88;;
40537;SDS011;27925;41.874;12.526;2022-09-16T06:54:52;18.38;;;5.38;;
40537;SDS011;27925;41.874;12.526;2022-09-16T06:57:18;20.50;;;4.95;;
40537;SDS011;27925;41.874;12.526;2022-09-16T06:59:47;18.15;;;4.57;;
40537;SDS011;27925;41.874;12.526;2022-09-16T07:02:17;26.40;;;7.13;;
40537;SDS011;27925;41.874;12.526;2022-09-16T07:04:43;28.50;;;5.78;;
40537;SDS011;27925;41.874;12.526;2022-09-16T07:07:10;18.80;;;4.97;;
40537;SDS011;27925;41.874;12.526;2022-09-16T07:09:39;20.85;;;5.38;;
40537;SDS011;27925;41.874;12.526;2022-09-16T07:12:06;20.35;;;6.18;;
40537;SDS011;27925;41.874;12.526;2022-09-16T07:14:33;25.40;;;6.25;;
40537;SDS011;27925;41.874;12.526;2022-09-16T07:17:00;20.27;;;5.18;;
40537;SDS011;27925;41.874;12.526;2022-09-16T07:19:26;22.92;;;6.63;;
40537;SDS011;27925;41.874;12.526;2022-09-16T07:21:52;16.90;;;5.30;;
40537;SDS011;27925;41.874;12.526;2022-09-16T07:24:18;23.88;;;5.60;;
40537;SDS011;27925;41.874;12.526;2022-09-16T07:26:44;21.20;;;5.50;;
40537;SDS011;27925;41.874;12.526;2022-09-16T07:29:11;15.70;;;4.72;;
40537;SDS011;27925;41.874;12.526;2022-09-16T07:31:40;22.25;;;6.40;;
40537;SDS011;27925;41.874;12.526;2022-09-16T07:34:07;18.30;;;5.43;;
40537;SDS011;27925;41.874;12.526;2022-09-16T07:36:38;21.42;;;5.43;;
40537;SDS011;27925;41.874;12.526;2022-09-16T07:39:06;26.33;;;4.97;;
40537;SDS011;27925;41.874;12.526;2022-09-16T07:41:36;22.63;;;5.53;;
40537;SDS011;27925;41.874;12.526;2022-09-16T07:44:04;23.77;;;6.40;;
40537;SDS011;27925;41.874;12.526;2022-09-16T07:46:32;19.58;;;6.00;;
40537;SDS011;27925;41.874;12.526;2022-09-16T07:48:59;22.70;;;4.72;;
40537;SDS011;27925;41.874;12.526;2022-09-16T07:51:27;17.88;;;4.88;;
40537;SDS011;27925;41.874;12.526;2022-09-16T07:53:57;20.67;;;5.82;;
40537;SDS011;27925;41.874;12.526;2022-09-16T07:56:27;19.40;;;5.78;;
40537;SDS011;27925;41.874;12.526;2022-09-16T07:58:54;20.35;;;5.55;;
40537;SDS011;27925;41.874;12.526;2022-09-16T08:01:20;31.40;;;6.05;;
40537;SDS011;27925;41.874;12.526;2022-09-16T08:03:47;21.83;;;5.28;;
40537;SDS011;27925;41.874;12.526;2022-09-16T08:06:15;19.02;;;5.18;;
40537;SDS011;27925;41.874;12.526;2022-09-16T08:08:47;21.73;;;5.10;;
40537;SDS011;27925;41.874;12.526;2022-09-16T08:11:16;27.08;;;5.90;;
40537;SDS011;27925;41.874;12.526;2022-09-16T08:13:42;22.92;;;6.03;;
40537;SDS011;27925;41.874;12.526;2022-09-16T08:16:10;18.48;;;5.05;;
40537;SDS011;27925;41.874;12.526;2022-09-16T08:18:37;19.98;;;4.63;;
40537;SDS011;27925;41.874;12.526;2022-09-16T08:21:06;25.40;;;5.22;;
40537;SDS011;27925;41.874;12.526;2022-09-16T08:23:36;22.35;;;5.65;;
40537;SDS011;27925;41.874;12.526;2022-09-16T08:26:03;18.88;;;5.20;;
40537;SDS011;27925;41.874;12.526;2022-09-16T08:28:30;17.33;;;5.10;;
40537;SDS011;27925;41.874;12.526;2022-09-16T08:31:00;15.73;;;4.40;;
40537;SDS011;27925;41.874;12.526;2022-09-16T08:33:26;18.23;;;5.15;;
40537;SDS011;27925;41.874;12.526;2022-09-16T08:35:56;16.00;;;5.15;;
40537;SDS011;27925;41.874;12.526;2022-09-16T08:38:22;19.90;;;4.78;;
40537;SDS011;27925;41.874;12.526;2022-09-16T08:40:48;25.80;;;6.68;;
40537;SDS011;27925;41.874;12.526;2022-09-16T08:46:08;17.52;;;4.50;;
40537;SDS011;27925;41.874;12.526;2022-09-16T08:51:14;16.48;;;6.53;;
40537;SDS011;27925;41.874;12.526;2022-09-16T08:56:31;17.52;;;4.20;;
40537;SDS011;27925;41.874;12.526;2022-09-16T08:59:01;13.73;;;3.60;;
40537;SDS011;27925;41.874;12.526;2022-09-16T09:03:59;15.75;;;4.20;;
40537;SDS011;27925;41.874;12.526;2022-09-16T09:14:09;17.20;;;4.35;;
40537;SDS011;27925;41.874;12.526;2022-09-16T09:16:52;12.45;;;3.65;;
40537;SDS011;27925;41.874;12.526;2022-09-16T09:19:40;16.08;;;3.95;;
40537;SDS011;27925;41.874;12.526;2022-09-16T09:25:07;14.50;;;3.80;;
40537;SDS011;27925;41.874;12.526;2022-09-16T09:30:21;13.32;;;4.28;;
40537;SDS011;27925;41.874;12.526;2022-09-16T09:38:19;10.60;;;3.53;;
40537;SDS011;27925;41.874;12.526;2022-09-16T09:41:10;14.45;;;3.38;;
40537;SDS011;27925;41.874;12.526;2022-09-16T09:43:57;14.65;;;3.70;;
40537;SDS011;27925;41.874;12.526;2022-09-16T09:46:41;14.35;;;4.75;;
40537;SDS011;27925;41.874;12.526;2022-09-16T09:49:15;13.35;;;3.30;;
40537;SDS011;27925;41.874;12.526;2022-09-16T09:52:04;10.93;;;3.08;;
40537;SDS011;27925;41.874;12.526;2022-09-16T09:54:37;13.93;;;4.00;;
40537;SDS011;27925;41.874;12.526;2022-09-16T09:57:11;17.02;;;4.82;;
40537;SDS011;27925;41.874;12.526;2022-09-16T10:02:39;13.48;;;3.42;;
40537;SDS011;27925;41.874;12.526;2022-09-16T10:05:23;14.15;;;3.55;;
40537;SDS011;27925;41.874;12.526;2022-09-16T10:07:53;14.65;;;3.70;;
40537;SDS011;27925;41.874;12.526;2022-09-16T10:10:22;12.32;;;3.60;;
40537;SDS011;27925;41.874;12.526;2022-09-16T10:12:49;13.15;;;3.08;;
40537;SDS011;27925;41.874;12.526;2022-09-16T10:15:20;12.38;;;3.30;;
40537;SDS011;27925;41.874;12.526;2022-09-16T10:17:53;9.45;;;3.03;;
40537;SDS011;27925;41.874;12.526;2022-09-16T10:22:53;12.60;;;3.55;;
40537;SDS011;27925;41.874;12.526;2022-09-16T10:28:16;15.35;;;3.72;;
40537;SDS011;27925;41.874;12.526;2022-09-16T10:30:46;13.57;;;3.25;;
40537;SDS011;27925;41.874;12.526;2022-09-16T10:33:56;11.52;;;2.55;;
40537;SDS011;27925;41.874;12.526;2022-09-16T10:38:36;9.43;;;2.97;;
40537;SDS011;27925;41.874;12.526;2022-09-16T10:41:13;12.50;;;2.97;;
40537;SDS011;27925;41.874;12.526;2022-09-16T10:44:20;11.60;;;2.55;;
40537;SDS011;27925;41.874;12.526;2022-09-16T10:46:49;15.93;;;3.47;;
40537;SDS011;27925;41.874;12.526;2022-09-16T10:49:31;12.33;;;2.87;;
40537;SDS011;27925;41.874;12.526;2022-09-16T10:52:06;12.60;;;3.45;;
40537;SDS011;27925;41.874;12.526;2022-09-16T10:54:42;13.50;;;5.40;;
40537;SDS011;27925;41.874;12.526;2022-09-16T11:08:18;9.10;;;2.63;;
40537;SDS011;27925;41.874;12.526;2022-09-16T11:16:10;10.32;;;2.90;;
40537;SDS011;27925;41.874;12.526;2022-09-16T11:24:36;9.27;;;2.30;;
40537;SDS011;27925;41.874;12.526;2022-09-16T11:35:39;10.82;;;3.10;;
40537;SDS011;27925;41.874;12.526;2022-09-16T11:38:36;10.70;;;2.40;;
40537;SDS011;27925;41.874;12.526;2022-09-16T11:41:18;7.20;;;2.35;;
40537;SDS011;27925;41.874;12.526;2022-09-16T12:01:12;6.97;;;2.05;;
40537;SDS011;27925;41.874;12.526;2022-09-16T12:06:55;7.85;;;2.55;;
40537;SDS011;27925;41.874;12.526;2022-09-16T12:12:15;10.48;;;2.30;;
40537;SDS011;27925;41.874;12.526;2022-09-16T12:14:50;11.05;;;2.70;;
40537;SDS011;27925;41.874;12.526;2022-09-16T12:17:25;9.50;;;2.63;;
40537;SDS011;27925;41.874;12.526;2022-09-16T12:20:02;10.07;;;2.50;;
40537;SDS011;27925;41.874;12.526;2022-09-16T12:22:50;9.10;;;2.25;;
40537;SDS011;27925;41.874;12.526;2022-09-16T12:25:38;11.43;;;2.10;;
40537;SDS011;27925;41.874;12.526;2022-09-16T12:31:14;8.95;;;1.95;;
40537;SDS011;27925;41.874;12.526;2022-09-16T12:34:01;11.60;;;2.53;;
40537;SDS011;27925;41.874;12.526;2022-09-16T12:36:34;9.15;;;2.30;;
40537;SDS011;27925;41.874;12.526;2022-09-16T12:39:05;10.73;;;2.92;;
40537;SDS011;27925;41.874;12.526;2022-09-16T12:47:34;9.90;;;2.65;;
40537;SDS011;27925;41.874;12.526;2022-09-16T13:01:58;11.07;;;2.35;;
40537;SDS011;27925;41.874;12.526;2022-09-16T13:04:36;10.20;;;2.25;;
40537;SDS011;27925;41.874;12.526;2022-09-16T13:07:15;14.02;;;2.58;;
40537;SDS011;27925;41.874;12.526;2022-09-16T13:10:03;10.98;;;2.75;;
40537;SDS011;27925;41.874;12.526;2022-09-16T13:12:40;10.15;;;3.35;;
40537;SDS011;27925;41.874;12.526;2022-09-16T13:15:06;9.65;;;2.22;;
40537;SDS011;27925;41.874;12.526;2022-09-16T13:17:33;9.02;;;1.98;;
40537;SDS011;27925;41.874;12.526;2022-09-16T13:20:03;9.38;;;2.28;;
40537;SDS011;27925;41.874;12.526;2022-09-16T13:27:59;6.57;;;2.20;;
40537;SDS011;27925;41.874;12.526;2022-09-16T13:32:58;12.00;;;2.83;;
40537;SDS011;27925;41.874;12.526;2022-09-16T13:37:57;9.73;;;2.33;;
40537;SDS011;27925;41.874;12.526;2022-09-16T13:40:28;9.40;;;2.03;;
40537;SDS011;27925;41.874;12.526;2022-09-16T13:45:34;10.43;;;2.65;;
40537;SDS011;27925;41.874;12.526;2022-09-16T13:50:50;10.20;;;2.25;;
40537;SDS011;27925;41.874;12.526;2022-09-16T13:53:32;6.30;;;1.77;;
40537;SDS011;27925;41.874;12.526;2022-09-16T13:58:36;7.90;;;2.03;;
40537;SDS011;27925;41.874;12.526;2022-09-16T14:12:00;7.50;;;1.92;;
40537;SDS011;27925;41.874;12.526;2022-09-16T14:14:30;7.35;;;1.75;;
40537;SDS011;27925;41.874;12.526;2022-09-16T14:16:59;10.82;;;2.25;;
40537;SDS011;27925;41.874;12.526;2022-09-16T14:19:30;8.18;;;1.92;;
40537;SDS011;27925;41.874;12.526;2022-09-16T14:22:05;4.30;;;1.50;;
40537;SDS011;27925;41.874;12.526;2022-09-16T14:24:39;5.40;;;1.70;;
40537;SDS011;27925;41.874;12.526;2022-09-16T14:27:26;7.18;;;2.53;;
40537;SDS011;27925;41.874;12.526;2022-09-16T14:29:57;7.55;;;1.90;;
40537;SDS011;27925;41.874;12.526;2022-09-16T14:32:29;5.60;;;1.80;;
40537;SDS011;27925;41.874;12.526;2022-09-16T14:35:01;7.03;;;2.00;;
40537;SDS011;27925;41.874;12.526;2022-09-16T14:37:33;6.53;;;1.80;;
40537;SDS011;27925;41.874;12.526;2022-09-16T14:40:12;5.05;;;1.70;;
40537;SDS011;27925;41.874;12.526;2022-09-16T14:43:23;9.55;;;1.90;;
40537;SDS011;27925;41.874;12.526;2022-09-16T14:45:31;5.57;;;1.65;;
40537;SDS011;27925;41.874;12.526;2022-09-16T14:48:00;8.32;;;1.80;;
40537;SDS011;27925;41.874;12.526;2022-09-16T14:50:35;9.18;;;1.83;;
40537;SDS011;27925;41.874;12.526;2022-09-16T14:53:05;11.25;;;1.80;;
40537;SDS011;27925;41.874;12.526;2022-09-16T14:55:47;5.93;;;1.70;;
40537;SDS011;27925;41.874;12.526;2022-09-16T14:58:13;5.35;;;1.75;;
40537;SDS011;27925;41.874;12.526;2022-09-16T15:00:43;6.22;;;1.90;;
40537;SDS011;27925;41.874;12.526;2022-09-16T15:05:43;6.70;;;1.85;;
40537;SDS011;27925;41.874;12.526;2022-09-16T15:10:58;5.85;;;1.85;;
40537;SDS011;27925;41.874;12.526;2022-09-16T15:13:34;10.50;;;1.90;;
40537;SDS011;27925;41.874;12.526;2022-09-16T15:16:13;5.05;;;1.60;;
40537;SDS011;27925;41.874;12.526;2022-09-16T15:18:43;7.18;;;2.28;;
40537;SDS011;27925;41.874;12.526;2022-09-16T15:21:21;7.95;;;2.20;;
40537;SDS011;27925;41.874;12.526;2022-09-16T15:23:51;9.18;;;2.38;;
40537;SDS011;27925;41.874;12.526;2022-09-16T15:26:28;5.63;;;1.70;;
40537;SDS011;27925;41.874;12.526;2022-09-16T15:31:43;8.70;;;1.70;;
40537;SDS011;27925;41.874;12.526;2022-09-16T15:36:51;11.20;;;3.38;;
40537;SDS011;27925;41.874;12.526;2022-09-16T15:42:11;6.15;;;1.60;;
40537;SDS011;27925;41.874;12.526;2022-09-16T15:47:37;6.10;;;2.20;;
40537;SDS011;27925;41.874;12.526;2022-09-16T15:50:17;6.20;;;1.77;;
40537;SDS011;27925;41.874;12.526;2022-09-16T15:55:23;7.55;;;1.70;;
40537;SDS011;27925;41.874;12.526;2022-09-16T15:58:05;10.02;;;2.50;;
40537;SDS011;27925;41.874;12.526;2022-09-16T16:00:56;5.25;;;2.45;;
40537;SDS011;27925;41.874;12.526;2022-09-16T16:03:25;7.53;;;1.88;;
40537;SDS011;27925;41.874;12.526;2022-09-16T16:05:54;8.13;;;2.03;;
40537;SDS011;27925;41.874;12.526;2022-09-16T16:08:48;6.43;;;2.00;;
40537;SDS011;27925;41.874;12.526;2022-09-16T16:11:18;6.47;;;2.22;;
40537;SDS011;27925;41.874;12.526;2022-09-16T16:13:46;7.28;;;2.20;;
40537;SDS011;27925;41.874;12.526;2022-09-16T16:16:14;6.90;;;2.17;;
40537;SDS011;27925;41.874;12.526;2022-09-16T16:18:41;6.38;;;2.28;;
40537;SDS011;27925;41.874;12.526;2022-09-16T16:21:10;6.57;;;1.98;;
40537;SDS011;27925;41.874;12.526;2022-09-16T16:23:38;9.23;;;3.60;;
40537;SDS011;27925;41.874;12.526;2022-09-16T16:26:04;8.45;;;2.75;;
40537;SDS011;27925;41.874;12.526;2022-09-16T16:28:32;10.05;;;1.90;;
40537;SDS011;27925;41.874;12.526;2022-09-16T16:31:08;4.90;;;1.70;;
40537;SDS011;27925;41.874;12.526;2022-09-16T16:33:36;5.45;;;1.65;;
40537;SDS011;27925;41.874;12.526;2022-09-16T16:36:05;9.05;;;2.13;;
40537;SDS011;27925;41.874;12.526;2022-09-16T16:38:31;3.92;;;1.33;;
40537;SDS011;27925;41.874;12.526;2022-09-16T16:40:57;5.95;;;1.83;;
40537;SDS011;27925;41.874;12.526;2022-09-16T16:43:24;7.18;;;2.00;;
40537;SDS011;27925;41.874;12.526;2022-09-16T16:45:53;5.28;;;1.70;;
40537;SDS011;27925;41.874;12.526;2022-09-16T16:48:20;8.27;;;1.85;;
40537;SDS011;27925;41.874;12.526;2022-09-16T16:53:27;7.72;;;2.13;;
40537;SDS011;27925;41.874;12.526;2022-09-16T16:55:54;7.60;;;2.10;;
40537;SDS011;27925;41.874;12.526;2022-09-16T16:58:32;11.45;;;2.30;;
40537;SDS011;27925;41.874;12.526;2022-09-16T17:01:06;8.15;;;2.08;;
40537;SDS011;27925;41.874;12.526;2022-09-16T17:03:37;9.00;;;1.80;;
40537;SDS011;27925;41.874;12.526;2022-09-16T17:06:03;8.57;;;2.30;;
40537;SDS011;27925;41.874;12.526;2022-09-16T17:08:30;9.50;;;2.42;;
40537;SDS011;27925;41.874;12.526;2022-09-16T17:13:34;10.10;;;2.28;;
40537;SDS011;27925;41.874;12.526;2022-09-16T17:16:05;6.35;;;2.20;;
40537;SDS011;27925;41.874;12.526;2022-09-16T17:18:33;7.45;;;2.08;;
40537;SDS011;27925;41.874;12.526;2022-09-16T17:21:04;7.25;;;1.90;;
40537;SDS011;27925;41.874;12.526;2022-09-16T17:23:41;6.72;;;1.95;;
40537;SDS011;27925;41.874;12.526;2022-09-16T17:26:07;7.78;;;2.65;;
40537;SDS011;27925;41.874;12.526;2022-09-16T17:28:34;8.98;;;2.30;;
40537;SDS011;27925;41.874;12.526;2022-09-16T17:31:06;12.48;;;2.17;;
40537;SDS011;27925;41.874;12.526;2022-09-16T17:33:36;8.02;;;1.83;;
40537;SDS011;27925;41.874;12.526;2022-09-16T17:36:02;8.90;;;2.20;;
40537;SDS011;27925;41.874;12.526;2022-09-16T17:38:30;8.50;;;2.00;;
40537;SDS011;27925;41.874;12.526;2022-09-16T17:41:03;7.43;;;2.00;;
40537;SDS011;27925;41.874;12.526;2022-09-16T17:43:33;8.98;;;2.42;;
40537;SDS011;27925;41.874;12.526;2022-09-16T17:46:00;8.98;;;1.90;;
40537;SDS011;27925;41.874;12.526;2022-09-16T17:48:27;11.05;;;2.20;;
40537;SDS011;27925;41.874;12.526;2022-09-16T17:50:54;9.25;;;2.60;;
40537;SDS011;27925;41.874;12.526;2022-09-16T17:53:22;11.70;;;2.50;;
40537;SDS011;27925;41.874;12.526;2022-09-16T17:55:48;11.20;;;2.90;;
40537;SDS011;27925;41.874;12.526;2022-09-16T17:58:16;7.38;;;2.03;;
40537;SDS011;27925;41.874;12.526;2022-09-16T18:00:45;12.48;;;2.38;;
40537;SDS011;27925;41.874;12.526;2022-09-16T18:03:11;8.07;;;2.33;;
40537;SDS011;27925;41.874;12.526;2022-09-16T18:05:37;15.70;;;3.85;;
40537;SDS011;27925;41.874;12.526;2022-09-16T18:08:03;10.15;;;3.10;;
40537;SDS011;27925;41.874;12.526;2022-09-16T18:10:29;11.13;;;4.45;;
40537;SDS011;27925;41.874;12.526;2022-09-16T18:12:55;13.45;;;4.28;;
40537;SDS011;27925;41.874;12.526;2022-09-16T18:15:24;11.65;;;4.05;;
40537;SDS011;27925;41.874;12.526;2022-09-16T18:17:51;12.15;;;3.33;;
40537;SDS011;27925;41.874;12.526;2022-09-16T18:20:18;11.32;;;3.22;;
40537;SDS011;27925;41.874;12.526;2022-09-16T18:22:44;11.63;;;3.45;;
40537;SDS011;27925;41.874;12.526;2022-09-16T18:25:10;10.52;;;3.35;;